Ortonville, MI

5:38 PM EST on February 24, 2017 (GMT -0500)
| | Change Station

Elev -9999 ft 0.00 °N, 0.00 °E | Updated 4 minutes ago

Mostly Cloudy
Mostly Cloudy
°F
Feels Like °F
N
Wind Variable Wind from North
Gusts mph

Today
High -- | Low -- °F
--% Chance of Precip.
Yesterday
High -- | Low -- °F
Precip. -- in
Pressure 29.49 in
Visibility 10.0 miles
Clouds Few 3500 ft
Scattered Clouds 10000 ft
Overcast 20000 ft
Dew Point Not available.
Humidity Not available.
Rainfall --
Snow Depth Not available.
7:17 AM 6:17 PM
Waning Crescent, 3% visible
METAR KPTK 242153Z 21008KT 10SM FEW035 SCT100 OVC200 16/09 A2948 RMK AO2 WSHFT 2047 RAE03 SLP985 P0000 T01610094 $
Pressure 29.49 in
Visibility 10.0 miles
Clouds Few 3500 ft
Scattered Clouds 10000 ft
Overcast 20000 ft
Dew Point Not available.
Humidity Not available.
Rainfall --
Snow Depth Not available.
7:17 AM 6:17 PM
Waning Crescent, 3% visible
METAR KPTK 242153Z 21008KT 10SM FEW035 SCT100 OVC200 16/09 A2948 RMK AO2 WSHFT 2047 RAE03 SLP985 P0000 T01610094 $

Get Your Daily Forecast Email!

Thanks for signing up!

Be on the lookout for a verification email in your inbox.

You'll start receiving the daily forecast at 8 AM.

×

10-Day Weather Forecast

Almanac

Astronomy

Feb. 24, 2017 Rise Set
Actual Time
Civil Twilight
Nautical Twilight
Astronomical Twilight
Moon
Length of Visible Light
Length of Day
Tomorrow will be .
, % of the Moon is Illuminated

Today's Extremes

State Highs State Lows

Community

WunderPhotos

Upload Photos

1,962,540 photos uploaded!

WunderBlog® & News

Nearby

Air Quality

  Air Quality AQ Index Pollutant
Not available.

Snow Depth

Station Depth Elevation

Earthquake Activity

City Distance Mag. Time & Date
Minimum magnitude displayed is 2.5.

Coastal Water Temperatures

Place Temperature

Stations

Nearby Weather Stations

Station Location Temp. Windchill Dew Point Humidity Wind Precip. Elev Updated Type
                   

Watches & Warnings

Severe Thunderstorm Watch
Issued: 5:24 PM EST Feb. 24, 2017 – National Weather Service

Severe Thunderstorm Watch 37 remains in effect until 1000 PM EST

Mi
. Michigan counties included are

Branch Calhoun Eaton
Genesee Hillsdale Ingham
Jackson Kalamazoo Lapeer
Lenawee Livingston Macomb
Monroe Oakland St. Clair
St. Joseph Sanilac Shiawassee
Washtenaw Wayne